createdAt,value
2018-07-12T00:01:23.346Z,4.43
2018-07-12T00:03:50.486Z,4.37
2018-07-12T00:06:17.643Z,4.70
2018-07-12T00:08:44.788Z,4.53
2018-07-12T00:11:11.955Z,4.70
2018-07-12T00:13:39.098Z,4.10
2018-07-12T00:16:06.287Z,4.50
2018-07-12T00:18:33.426Z,4.03
2018-07-12T00:21:00.578Z,4.07
2018-07-12T00:23:27.760Z,4.00
2018-07-12T00:25:54.904Z,4.17
2018-07-12T00:28:22.042Z,5.03
2018-07-12T00:30:49.212Z,3.97
2018-07-12T00:33:16.369Z,4.80
2018-07-12T00:35:43.519Z,4.43
2018-07-12T00:38:10.670Z,4.17
2018-07-12T00:40:37.826Z,4.37
2018-07-12T00:43:04.982Z,4.50
2018-07-12T00:51:16.275Z,4.37
2018-07-12T00:53:43.455Z,4.43
2018-07-12T00:56:10.614Z,4.90
2018-07-12T00:58:37.786Z,4.73
2018-07-12T01:01:04.933Z,4.40
2018-07-12T01:03:32.104Z,4.63
2018-07-12T01:05:59.258Z,4.57
2018-07-12T01:08:26.438Z,4.13
2018-07-12T01:10:53.593Z,4.53
2018-07-12T01:13:20.746Z,4.47
2018-07-12T01:15:47.912Z,5.27
2018-07-12T01:18:15.053Z,4.70
2018-07-12T01:20:42.239Z,4.67
2018-07-12T01:23:09.665Z,4.20
2018-07-12T01:25:36.842Z,4.37
2018-07-12T01:28:04.022Z,4.60
2018-07-12T01:30:31.190Z,4.77
2018-07-12T01:32:58.334Z,4.90
2018-07-12T01:35:25.494Z,4.73
2018-07-12T01:37:52.661Z,5.13
2018-07-12T01:40:19.821Z,4.50
2018-07-12T01:42:46.957Z,4.57
2018-07-12T01:45:14.099Z,4.80
2018-07-12T01:47:41.257Z,4.87
2018-07-12T01:50:08.414Z,4.57
2018-07-12T01:52:35.594Z,5.10
2018-07-12T01:55:02.742Z,4.40
2018-07-12T01:57:29.897Z,4.60
2018-07-12T01:59:57.058Z,4.67
2018-07-12T02:02:24.266Z,4.60
2018-07-12T02:04:51.442Z,4.67
2018-07-12T02:07:18.582Z,4.47
2018-07-12T02:09:45.748Z,4.13
2018-07-12T02:12:12.937Z,4.77
2018-07-12T02:14:40.100Z,4.50
2018-07-12T02:17:07.256Z,5.13
2018-07-12T02:19:34.410Z,5.10
2018-07-12T02:22:01.555Z,5.07
2018-07-12T02:24:28.720Z,5.20
2018-07-12T02:26:55.895Z,4.57
2018-07-12T02:29:23.067Z,4.97
2018-07-12T02:31:50.218Z,5.23
2018-07-12T02:34:17.408Z,5.63
2018-07-12T02:36:44.604Z,6.00
2018-07-12T02:39:11.741Z,5.47
2018-07-12T02:41:38.908Z,6.00
2018-07-12T02:44:06.079Z,5.80
2018-07-12T02:46:33.246Z,6.20
2018-07-12T02:49:00.382Z,6.47
2018-07-12T02:51:27.551Z,6.03
2018-07-12T02:53:54.717Z,5.63
2018-07-12T02:56:21.867Z,5.60
2018-07-12T02:58:49.257Z,5.07
2018-07-12T03:01:16.406Z,5.73
2018-07-12T03:03:43.601Z,5.47
2018-07-12T03:06:10.754Z,5.00
2018-07-12T03:08:37.921Z,5.10
2018-07-12T03:11:05.089Z,4.87
2018-07-12T03:13:32.251Z,5.30
2018-07-12T03:15:59.385Z,4.80
2018-07-12T03:18:26.541Z,5.03
2018-07-12T03:20:53.713Z,5.60
2018-07-12T03:23:20.847Z,5.40
2018-07-12T03:25:48.022Z,4.90
2018-07-12T03:28:15.176Z,5.13
2018-07-12T03:30:42.383Z,5.10
2018-07-12T03:33:09.538Z,5.23
2018-07-12T03:35:36.712Z,5.37
2018-07-12T03:38:03.865Z,5.37
2018-07-12T03:40:31.041Z,4.90
2018-07-12T03:42:58.181Z,4.87
2018-07-12T03:45:25.321Z,5.83
2018-07-12T03:47:52.490Z,5.23
2018-07-12T03:50:19.629Z,5.20
2018-07-12T03:52:46.919Z,4.80
2018-07-12T03:55:14.440Z,5.37
2018-07-12T03:57:41.610Z,5.10
2018-07-12T04:00:08.759Z,5.00
2018-07-12T04:02:36.026Z,5.47
2018-07-12T04:05:03.184Z,5.17
2018-07-12T04:07:30.317Z,5.40
2018-07-12T04:09:57.482Z,4.87
2018-07-12T04:12:24.919Z,5.17
2018-07-12T04:14:52.080Z,5.20
2018-07-12T04:17:26.660Z,5.50
2018-07-12T04:19:53.959Z,5.20
2018-07-12T04:22:21.132Z,5.40
2018-07-12T04:24:48.763Z,5.57
2018-07-12T04:27:15.937Z,5.77
2018-07-12T04:29:43.081Z,5.97
2018-07-12T04:32:10.496Z,5.40
2018-07-12T04:34:37.679Z,6.13
2018-07-12T04:37:04.817Z,4.77
2018-07-12T04:39:31.966Z,5.67
2018-07-12T04:41:59.134Z,5.47
2018-07-12T04:44:26.687Z,5.20
2018-07-12T04:46:53.934Z,5.13
2018-07-12T04:49:21.889Z,5.43
2018-07-12T04:51:49.945Z,5.20
2018-07-12T04:54:17.122Z,5.60
2018-07-12T04:56:44.326Z,4.97
2018-07-12T04:59:11.512Z,5.33
2018-07-12T05:01:41.531Z,5.10
2018-07-12T05:04:08.797Z,5.40
2018-07-12T05:06:36.482Z,5.40
2018-07-12T05:09:04.681Z,4.90
2018-07-12T05:14:22.040Z,5.30
2018-07-12T05:16:50.819Z,5.13
2018-07-12T05:19:18.041Z,5.43
2018-07-12T05:21:45.331Z,5.20
2018-07-12T05:24:12.520Z,5.30
2018-07-12T05:26:39.678Z,4.80
2018-07-12T05:29:06.843Z,5.03
2018-07-12T05:31:34.022Z,5.13
2018-07-12T05:34:01.164Z,5.10
2018-07-12T05:37:04.714Z,4.93
2018-07-12T05:39:32.809Z,4.87
2018-07-12T05:42:00.944Z,5.13
2018-07-12T05:44:29.042Z,5.20
2018-07-12T05:46:57.174Z,5.17
2018-07-12T05:49:25.269Z,5.70
2018-07-12T05:51:53.382Z,5.70
2018-07-12T05:54:21.478Z,5.43
2018-07-12T05:56:49.595Z,5.47
2018-07-12T05:59:18.298Z,4.87
2018-07-12T06:01:58.271Z,5.00
2018-07-12T06:04:26.410Z,4.90
2018-07-12T06:06:55.164Z,5.27
2018-07-12T06:09:23.389Z,5.10
2018-07-12T06:11:51.608Z,5.53
2018-07-12T06:14:19.768Z,4.53
2018-07-12T06:16:48.011Z,5.40
2018-07-12T06:19:16.012Z,5.03
2018-07-12T06:21:44.112Z,5.10
2018-07-12T06:24:12.267Z,5.77
2018-07-12T06:26:40.421Z,5.10
2018-07-12T06:29:08.572Z,4.97
2018-07-12T06:31:36.721Z,4.70
2018-07-12T06:34:04.886Z,4.50
2018-07-12T06:36:33.120Z,4.10
2018-07-12T06:39:01.295Z,4.63
2018-07-12T06:41:29.478Z,4.30
2018-07-12T06:43:57.644Z,4.80
2018-07-12T06:46:25.796Z,4.37
2018-07-12T06:48:53.971Z,4.80
2018-07-12T06:51:22.138Z,4.60
2018-07-12T06:53:50.433Z,4.60
2018-07-12T06:56:18.581Z,4.60
2018-07-12T06:58:46.751Z,4.50
2018-07-12T07:01:14.890Z,4.10
2018-07-12T07:03:43.082Z,4.40
2018-07-12T07:06:11.245Z,4.73
2018-07-12T07:08:39.407Z,4.57
2018-07-12T07:11:07.652Z,4.90
2018-07-12T07:13:35.823Z,5.00
2018-07-12T07:16:04.189Z,4.70
2018-07-12T07:18:32.376Z,4.67
2018-07-12T07:21:00.545Z,4.80
2018-07-12T07:23:28.728Z,4.63
2018-07-12T07:25:56.880Z,4.20
2018-07-12T07:28:25.060Z,3.90
2018-07-12T07:30:53.238Z,3.73
2018-07-12T07:33:21.408Z,4.40
2018-07-12T07:35:49.563Z,4.50
2018-07-12T07:38:17.760Z,4.27
2018-07-12T07:40:45.934Z,4.40
2018-07-12T07:43:14.272Z,4.20
2018-07-12T07:45:42.283Z,4.70
2018-07-12T07:48:10.455Z,5.07
2018-07-12T07:50:41.633Z,5.80
2018-07-12T07:53:10.105Z,6.57
2018-07-12T07:55:38.249Z,7.17
2018-07-12T07:58:06.419Z,8.00
2018-07-12T08:00:34.596Z,8.80
2018-07-12T08:03:02.751Z,10.10
2018-07-12T08:05:30.923Z,9.50
2018-07-12T08:07:59.106Z,10.67
2018-07-12T08:10:27.300Z,10.40
2018-07-12T08:12:55.475Z,11.13
2018-07-12T08:15:23.720Z,11.40
2018-07-12T08:17:51.905Z,11.33
2018-07-12T08:20:21.620Z,10.93
2018-07-12T08:22:49.780Z,9.87
2018-07-12T08:25:17.955Z,9.63
2018-07-12T08:27:57.291Z,9.37
2018-07-12T08:30:25.522Z,11.03
2018-07-12T08:32:53.691Z,11.27
2018-07-12T08:35:21.854Z,10.87
2018-07-12T08:37:50.031Z,10.10
2018-07-12T08:40:18.187Z,10.23
2018-07-12T08:42:46.444Z,11.47
2018-07-12T08:45:14.576Z,11.43
2018-07-12T08:47:42.748Z,9.93
2018-07-12T08:50:10.959Z,10.63
2018-07-12T08:52:39.139Z,10.53
2018-07-12T08:55:07.345Z,10.00
2018-07-12T08:57:35.535Z,9.17
2018-07-12T09:00:04.057Z,9.13
2018-07-12T09:02:32.215Z,9.40
2018-07-12T09:05:00.372Z,9.25
2018-07-12T09:07:28.567Z,10.45
2018-07-12T09:09:56.744Z,8.93
2018-07-12T09:12:24.932Z,7.95
2018-07-12T09:14:53.121Z,8.23
2018-07-12T09:17:21.301Z,7.67
2018-07-12T09:19:49.515Z,8.58
2018-07-12T09:22:17.447Z,9.85
2018-07-12T09:24:45.602Z,8.13
2018-07-12T09:27:13.782Z,7.78
2018-07-12T09:29:41.976Z,8.53
2018-07-12T09:32:10.133Z,7.72
2018-07-12T09:34:38.411Z,7.63
2018-07-12T09:37:06.698Z,7.07
2018-07-12T09:39:34.846Z,7.57
2018-07-12T09:42:03.010Z,6.90
2018-07-12T09:44:31.161Z,6.37
2018-07-12T09:46:59.329Z,7.03
2018-07-12T09:49:27.485Z,6.20
2018-07-12T09:51:55.648Z,6.07
2018-07-12T09:54:23.572Z,6.30
2018-07-12T09:57:03.272Z,6.33
2018-07-12T09:59:31.450Z,6.27
2018-07-12T10:02:04.995Z,6.07
2018-07-12T10:04:33.159Z,6.73
2018-07-12T10:07:06.656Z,6.30
2018-07-12T10:09:40.357Z,6.23
2018-07-12T10:12:14.657Z,6.05
2018-07-12T10:14:48.130Z,7.05
2018-07-12T10:17:21.835Z,6.13
2018-07-12T10:19:50.020Z,6.25
2018-07-12T10:22:18.227Z,6.00
2018-07-12T10:24:46.409Z,6.25
2018-07-12T10:27:14.602Z,5.50
2018-07-12T10:29:42.794Z,5.55
2018-07-12T10:32:10.950Z,5.15
2018-07-12T10:34:39.125Z,5.33
2018-07-12T10:37:07.284Z,4.20
2018-07-12T10:39:35.460Z,4.53
2018-07-12T10:42:03.639Z,4.78
2018-07-12T10:44:31.871Z,4.35
2018-07-12T10:47:00.018Z,4.33
2018-07-12T10:49:28.193Z,4.25
2018-07-12T10:51:56.380Z,4.10
2018-07-12T10:54:24.568Z,4.08
2018-07-12T10:56:52.811Z,3.90
2018-07-12T10:59:21.020Z,3.80
2018-07-12T11:01:49.204Z,3.85
2018-07-12T11:04:17.123Z,3.98
2018-07-12T11:06:45.421Z,4.05
2018-07-12T11:09:13.715Z,3.87
2018-07-12T11:11:41.852Z,3.42
2018-07-12T11:14:10.077Z,3.25
2018-07-12T11:16:38.466Z,3.80
2018-07-12T11:19:06.676Z,3.67
2018-07-12T11:21:34.892Z,3.50
2018-07-12T11:24:03.060Z,3.90
2018-07-12T11:26:31.271Z,4.25
2018-07-12T11:28:59.448Z,3.72
2018-07-12T11:34:02.077Z,4.20
2018-07-12T11:36:30.236Z,4.05
2018-07-12T11:38:58.408Z,4.67
2018-07-12T11:41:26.602Z,4.25
2018-07-12T11:43:54.755Z,4.70
2018-07-12T11:46:22.941Z,4.60
2018-07-12T11:48:51.114Z,4.12
2018-07-12T11:51:19.440Z,4.53
2018-07-12T11:53:47.599Z,3.90
2018-07-12T11:56:15.760Z,4.20
2018-07-12T11:58:43.945Z,4.37
2018-07-12T12:01:12.113Z,4.10
2018-07-12T12:03:40.299Z,3.92
2018-07-12T12:06:08.448Z,4.40
2018-07-12T12:08:36.773Z,3.80
2018-07-12T12:11:04.995Z,3.95
2018-07-12T12:13:33.203Z,4.37
2018-07-12T12:16:01.349Z,4.67
2018-07-12T12:18:29.507Z,4.28
2018-07-12T12:20:57.651Z,4.70
2018-07-12T12:23:25.855Z,4.72
2018-07-12T12:25:54.021Z,4.75
2018-07-12T12:28:22.172Z,4.42
2018-07-12T12:30:50.344Z,4.03
2018-07-12T12:33:18.749Z,4.55
2018-07-12T12:35:46.916Z,4.40
2018-07-12T12:38:15.088Z,4.40
2018-07-12T12:40:43.276Z,4.45
2018-07-12T12:43:11.463Z,4.12
2018-07-12T12:45:39.643Z,4.03
2018-07-12T12:48:14.307Z,4.08
2018-07-12T12:50:42.475Z,4.17
2018-07-12T12:53:10.633Z,3.70
2018-07-12T12:55:38.865Z,4.00
2018-07-12T12:58:06.979Z,3.60
2018-07-12T13:00:35.157Z,3.90
2018-07-12T13:03:03.305Z,3.83
2018-07-12T13:05:31.464Z,3.33
2018-07-12T13:07:59.739Z,3.95
2018-07-12T13:10:27.862Z,3.72
2018-07-12T13:12:56.012Z,3.40
2018-07-12T13:15:24.233Z,3.50
2018-07-12T13:17:52.383Z,3.62
2018-07-12T13:20:20.556Z,3.42
2018-07-12T13:22:48.726Z,3.50
2018-07-12T13:25:16.881Z,3.35
2018-07-12T13:27:45.131Z,3.90
2018-07-12T13:30:13.272Z,3.42
2018-07-12T13:32:41.459Z,3.42
2018-07-12T13:35:09.700Z,3.30
2018-07-12T13:37:37.882Z,3.80
2018-07-12T13:40:06.072Z,3.77
2018-07-12T13:42:34.305Z,3.42
2018-07-12T13:45:02.555Z,3.90
2018-07-12T13:47:30.724Z,3.52
2018-07-12T13:49:58.884Z,3.60
2018-07-12T13:52:27.075Z,3.30
2018-07-12T13:54:55.244Z,3.60
2018-07-12T13:57:23.417Z,3.50
2018-07-12T13:59:51.423Z,3.35
2018-07-12T14:02:19.606Z,3.37
2018-07-12T14:04:47.782Z,3.60
2018-07-12T14:07:16.079Z,3.30
2018-07-12T14:09:44.292Z,3.08
2018-07-12T14:12:12.448Z,3.42
2018-07-12T14:14:40.767Z,2.98
2018-07-12T14:17:08.929Z,3.50
2018-07-12T14:19:37.113Z,3.42
2018-07-12T14:22:05.328Z,3.40
2018-07-12T14:24:33.512Z,3.10
2018-07-12T14:27:01.703Z,3.37
2018-07-12T14:29:29.896Z,3.40
2018-07-12T14:31:58.068Z,3.47
2018-07-12T14:34:26.257Z,3.47
2018-07-12T14:36:54.540Z,3.22
2018-07-12T14:39:22.865Z,3.50
2018-07-12T14:41:51.232Z,3.55
2018-07-12T14:44:19.408Z,4.08
2018-07-12T14:46:47.614Z,3.90
2018-07-12T14:49:16.056Z,3.33
2018-07-12T14:51:44.230Z,3.02
2018-07-12T14:54:12.414Z,3.90
2018-07-12T14:56:40.608Z,3.30
2018-07-12T14:59:08.773Z,3.33
2018-07-12T15:01:36.989Z,3.30
2018-07-12T15:04:05.135Z,3.40
2018-07-12T15:06:33.315Z,3.50
2018-07-12T15:09:01.493Z,3.40
2018-07-12T15:11:29.683Z,3.62
2018-07-12T15:13:57.619Z,3.42
2018-07-12T15:16:25.874Z,3.37
2018-07-12T15:18:54.088Z,2.92
2018-07-12T15:21:22.043Z,3.40
2018-07-12T15:23:50.255Z,3.50
2018-07-12T15:26:18.579Z,3.62
2018-07-12T15:28:46.464Z,3.52
2018-07-12T15:31:14.651Z,3.40
2018-07-12T15:33:42.953Z,3.67
2018-07-12T15:36:11.135Z,3.40
2018-07-12T15:38:39.321Z,3.47
2018-07-12T15:41:07.955Z,3.50
2018-07-12T15:43:36.144Z,3.40
2018-07-12T15:46:04.368Z,3.27
2018-07-12T15:48:32.996Z,3.70
2018-07-12T15:51:01.145Z,3.47
2018-07-12T15:53:29.321Z,3.27
2018-07-12T15:55:57.501Z,3.42
2018-07-12T15:58:25.718Z,3.60
2018-07-12T16:00:53.900Z,3.15
2018-07-12T16:03:22.132Z,3.40
2018-07-12T16:05:50.301Z,3.60
2018-07-12T16:08:18.483Z,3.42
2018-07-12T16:10:46.699Z,3.62
2018-07-12T16:13:14.879Z,3.22
2018-07-12T16:15:43.073Z,3.10
2018-07-12T16:18:11.007Z,3.60
2018-07-12T16:20:39.361Z,3.25
2018-07-12T16:23:07.546Z,3.17
2018-07-12T16:25:36.486Z,3.30
2018-07-12T16:28:04.648Z,3.30
2018-07-12T16:30:32.840Z,3.55
2018-07-12T16:33:01.021Z,3.45
2018-07-12T16:35:29.189Z,3.35
2018-07-12T16:37:57.364Z,3.87
2018-07-12T16:40:25.536Z,3.20
2018-07-12T16:42:53.733Z,4.05
2018-07-12T16:45:21.879Z,3.35
2018-07-12T16:47:50.040Z,3.62
2018-07-12T16:50:18.227Z,3.33
2018-07-12T16:52:46.399Z,3.40
2018-07-12T16:55:14.587Z,3.87
2018-07-12T16:57:42.761Z,3.55
2018-07-12T17:00:10.941Z,3.40
2018-07-12T17:02:39.339Z,3.25
2018-07-12T17:05:07.543Z,3.60
2018-07-12T17:07:35.721Z,3.47
2018-07-12T17:10:03.971Z,3.58
2018-07-12T17:12:32.152Z,3.37
2018-07-12T17:15:00.397Z,3.30
2018-07-12T17:17:28.586Z,3.90
2018-07-12T17:19:56.736Z,3.80
2018-07-12T17:22:25.040Z,4.00
2018-07-12T17:24:52.990Z,3.83
2018-07-12T17:27:21.244Z,3.77
2018-07-12T17:29:49.416Z,3.70
2018-07-12T17:32:17.573Z,3.92
2018-07-12T17:34:45.854Z,3.37
2018-07-12T17:37:14.022Z,3.92
2018-07-12T17:39:42.209Z,4.50
2018-07-12T17:42:10.375Z,4.30
2018-07-12T17:44:38.524Z,4.23
2018-07-12T17:47:06.766Z,4.20
2018-07-12T17:49:34.924Z,4.13
2018-07-12T17:52:04.064Z,4.10
2018-07-12T17:54:32.276Z,4.20
2018-07-12T17:57:00.659Z,4.40
2018-07-12T17:59:28.876Z,4.00
2018-07-12T18:01:57.092Z,4.50
2018-07-12T18:04:25.282Z,5.00
2018-07-12T18:06:53.469Z,4.63
2018-07-12T18:09:21.660Z,4.63
2018-07-12T18:11:49.852Z,4.40
2018-07-12T18:14:18.014Z,4.23
2018-07-12T18:16:46.367Z,4.80
2018-07-12T18:19:14.641Z,4.27
2018-07-12T18:21:42.816Z,4.10
2018-07-12T18:24:10.993Z,4.43
2018-07-12T18:26:39.376Z,4.50
2018-07-12T18:29:07.772Z,4.83
2018-07-12T18:31:36.171Z,4.33
2018-07-12T18:34:04.487Z,4.20
2018-07-12T18:36:32.832Z,4.13
2018-07-12T18:39:00.992Z,3.77
2018-07-12T18:44:03.955Z,3.80
2018-07-12T18:46:32.244Z,4.03
2018-07-12T18:49:00.466Z,3.90
2018-07-12T18:51:28.787Z,3.83
2018-07-12T18:53:57.091Z,3.93
2018-07-12T18:56:25.409Z,4.10
2018-07-12T18:58:53.615Z,4.27
2018-07-12T19:01:21.782Z,4.33
2018-07-12T19:03:49.962Z,4.13
2018-07-12T19:06:18.127Z,3.87
2018-07-12T19:08:46.436Z,4.47
2018-07-12T19:11:14.902Z,4.63
2018-07-12T19:13:43.063Z,4.40
2018-07-12T19:16:11.359Z,4.30
2018-07-12T19:18:39.600Z,4.57
2018-07-12T19:21:07.831Z,4.20
2018-07-12T19:23:36.071Z,4.60
2018-07-12T19:26:04.792Z,5.00
2018-07-12T19:28:33.072Z,5.17
2018-07-12T19:31:01.538Z,4.50
2018-07-12T19:33:29.794Z,4.97
2018-07-12T19:35:57.986Z,4.60
2018-07-12T19:38:26.263Z,5.27
2018-07-12T19:40:54.628Z,4.73
2018-07-12T19:43:22.879Z,4.73
2018-07-12T19:45:51.286Z,4.70
2018-07-12T19:48:19.542Z,4.73
2018-07-12T19:50:47.897Z,5.20
2018-07-12T19:53:16.098Z,5.10
2018-07-12T19:55:44.268Z,4.73
2018-07-12T19:58:12.491Z,4.93
2018-07-12T20:00:40.704Z,5.07
2018-07-12T20:03:08.988Z,5.27
2018-07-12T20:05:37.208Z,5.23
2018-07-12T20:08:05.537Z,5.23
2018-07-12T20:10:33.718Z,5.20
2018-07-12T20:13:25.183Z,4.80
2018-07-12T20:15:54.077Z,5.73
2018-07-12T20:18:22.356Z,5.60
2018-07-12T20:20:50.600Z,6.07
2018-07-12T20:23:19.028Z,5.60
2018-07-12T20:25:47.314Z,5.27
2018-07-12T20:28:15.468Z,5.70
2018-07-12T20:30:43.708Z,5.63
2018-07-12T20:33:12.840Z,4.93
2018-07-12T20:35:41.011Z,5.70
2018-07-12T20:38:09.183Z,5.50
2018-07-12T20:40:37.347Z,5.50
2018-07-12T20:43:05.508Z,6.20
2018-07-12T20:45:33.664Z,6.10
2018-07-12T20:48:01.876Z,5.60
2018-07-12T20:50:30.004Z,6.00
2018-07-12T20:52:58.181Z,6.23
2018-07-12T20:55:26.415Z,6.63
2018-07-12T20:57:54.706Z,6.03
2018-07-12T21:00:22.861Z,5.97
2018-07-12T21:02:51.054Z,6.33
2018-07-12T21:05:19.213Z,6.57
2018-07-12T21:07:47.404Z,6.50
2018-07-12T21:10:15.598Z,6.30
2018-07-12T21:12:43.768Z,6.30
2018-07-12T21:15:11.919Z,6.57
2018-07-12T21:17:40.104Z,6.13
2018-07-12T21:20:08.252Z,6.70
2018-07-12T21:22:36.436Z,6.70
2018-07-12T21:25:04.615Z,6.50
2018-07-12T21:27:32.784Z,5.90
2018-07-12T21:30:00.946Z,6.40
2018-07-12T21:32:29.126Z,6.20
2018-07-12T21:34:57.378Z,6.87
2018-07-12T21:37:25.588Z,7.07
2018-07-12T21:39:54.423Z,6.73
2018-07-12T21:42:22.629Z,7.20
2018-07-12T21:44:50.799Z,7.23
2018-07-12T21:47:19.609Z,6.87
2018-07-12T21:49:47.914Z,7.50
2018-07-12T21:52:16.092Z,7.30
2018-07-12T21:54:44.307Z,7.23
2018-07-12T21:57:12.559Z,7.50
2018-07-12T21:59:40.759Z,7.53
2018-07-12T22:02:08.924Z,7.37
2018-07-12T22:04:37.099Z,7.30
2018-07-12T22:07:18.299Z,7.53
2018-07-12T22:09:46.445Z,7.67
2018-07-12T22:12:14.616Z,7.93
2018-07-12T22:14:42.839Z,7.60
2018-07-12T22:17:11.025Z,7.73
2018-07-12T22:19:39.194Z,8.43
2018-07-12T22:22:07.350Z,8.50
2018-07-12T22:24:35.526Z,7.27
2018-07-12T22:27:03.703Z,8.07
2018-07-12T22:29:31.639Z,8.03
2018-07-12T22:31:59.819Z,8.07
2018-07-12T22:34:27.972Z,7.60
2018-07-12T22:36:56.164Z,8.00
2018-07-12T22:39:24.456Z,8.10
2018-07-12T22:41:52.729Z,8.57
2018-07-12T22:44:20.789Z,8.33
2018-07-12T22:46:49.071Z,7.73
2018-07-12T22:49:17.241Z,8.27
2018-07-12T22:51:45.408Z,8.20
2018-07-12T22:54:13.326Z,8.80
2018-07-12T22:56:41.530Z,8.67
2018-07-12T22:59:09.700Z,8.60
2018-07-12T23:01:37.873Z,8.43
2018-07-12T23:04:06.059Z,8.97
2018-07-12T23:06:34.314Z,9.27
2018-07-12T23:09:02.388Z,9.07
2018-07-12T23:11:30.564Z,8.70
2018-07-12T23:13:58.744Z,9.27
2018-07-12T23:16:26.897Z,8.53
2018-07-12T23:18:55.069Z,8.57
2018-07-12T23:21:23.239Z,8.33
2018-07-12T23:23:51.620Z,8.77
2018-07-12T23:26:19.799Z,8.63
2018-07-12T23:28:48.033Z,8.67
2018-07-12T23:31:16.183Z,8.60
2018-07-12T23:33:44.363Z,9.40
2018-07-12T23:36:12.571Z,7.83
2018-07-12T23:38:40.738Z,9.20
2018-07-12T23:41:08.935Z,9.10
2018-07-12T23:43:37.106Z,8.93
2018-07-12T23:46:05.337Z,8.43
2018-07-12T23:48:33.869Z,9.87
2018-07-12T23:51:02.061Z,9.07
2018-07-12T23:53:30.244Z,9.20
2018-07-12T23:55:58.454Z,10.10
2018-07-12T23:58:26.633Z,9.23
